Time;durP1;ratioP1;P1;durP2;ratioP2;P2;SDS_P1;SDS_P2;PMS_P1;PMS_P2;Temp;Humidity;BMP_temperature;BMP_pressure;BME280_temperature;BME280_humidity;BME280_pressure;Samples;Min_cycle;Max_cycle;Signal;HPM_P1;HPM_P2
2022/01/15 00:01:16;;;;;;;26.08;13.20;;;;;;;-1.14;67.93;93866.34;2074730;69;20530;-73
2022/01/15 00:03:43;;;;;;;24.73;12.25;;;;;;;-1.15;66.82;93865.59;2074925;69;20187;-70
2022/01/15 00:06:08;;;;;;;22.73;11.88;;;;;;;-1.08;65.92;93864.31;2074635;69;20168;-72
2022/01/15 00:08:34;;;;;;;22.67;11.35;;;;;;;-1.13;66.67;93867.84;2074941;69;20252;-68
2022/01/15 00:11:00;;;;;;;18.88;9.93;;;;;;;-1.08;66.47;93869.84;2074749;69;20158;-69
2022/01/15 00:13:30;;;;;;;19.42;10.00;;;;;;;-1.10;67.06;93870.38;2074762;69;20151;-74
2022/01/15 00:16:28;;;;;;;29.75;11.48;;;;;;;-1.16;66.88;93864.09;2075010;69;20136;-73
2022/01/15 00:19:03;;;;;;;22.25;11.23;;;;;;;-1.25;66.80;93860.84;2074672;69;20680;-73
2022/01/15 00:21:29;;;;;;;21.85;11.00;;;;;;;-1.17;66.45;93861.84;2074643;69;20155;-69
2022/01/15 00:23:54;;;;;;;22.20;11.13;;;;;;;-1.27;67.25;93860.59;2074809;69;20572;-67
2022/01/15 00:26:20;;;;;;;20.98;11.02;;;;;;;-1.20;66.77;93873.88;2074722;69;20150;-67
2022/01/15 00:28:46;;;;;;;22.85;11.90;;;;;;;-1.25;66.55;93867.13;2074682;69;20152;-68
2022/01/15 00:31:11;;;;;;;17.02;9.35;;;;;;;-1.35;67.09;93865.91;2068618;69;20175;-68
2022/01/15 00:33:37;;;;;;;24.05;12.02;;;;;;;-1.36;67.02;93872.69;2074724;69;20187;-67
2022/01/15 00:36:03;;;;;;;26.38;12.40;;;;;;;-1.41;66.46;93865.91;2074560;69;20156;-68
2022/01/15 00:38:29;;;;;;;29.35;14.52;;;;;;;-1.40;67.11;93861.88;2074824;69;20140;-68
2022/01/15 00:40:55;;;;;;;29.83;14.57;;;;;;;-1.32;66.95;93864.88;2068537;69;20182;-69
2022/01/15 00:43:21;;;;;;;24.38;12.43;;;;;;;-1.32;66.93;93864.88;2074688;69;20213;-72
2022/01/15 00:45:46;;;;;;;25.40;12.43;;;;;;;-1.28;66.32;93865.38;2074624;69;20151;-72
2022/01/15 00:48:12;;;;;;;19.75;10.70;;;;;;;-1.25;66.19;93864.34;2074317;69;20199;-71
2022/01/15 00:50:38;;;;;;;18.17;8.75;;;;;;;-1.09;65.99;93855.28;2073443;69;20526;-69
2022/01/15 00:53:04;;;;;;;17.20;8.85;;;;;;;-0.96;66.77;93862.25;2074476;69;20162;-68
2022/01/15 00:55:29;;;;;;;13.80;7.38;;;;;;;-1.25;68.60;93852.56;2074609;69;20151;-68
2022/01/15 00:57:55;;;;;;;19.60;9.52;;;;;;;-1.33;68.79;93855.06;2074802;69;20171;-68
2022/01/15 01:00:22;;;;;;;21.92;11.07;;;;;;;-1.36;67.99;93862.38;2074825;69;20140;-68
2022/01/15 01:02:49;;;;;;;23.35;10.93;;;;;;;-1.44;68.30;93866.16;2074637;69;20597;-68
2022/01/15 01:05:16;;;;;;;24.00;11.70;;;;;;;-1.35;67.65;93865.91;2071057;69;20526;-68
2022/01/15 01:07:42;;;;;;;23.00;11.77;;;;;;;-1.38;66.86;93856.59;2074731;69;20203;-68
2022/01/15 01:22:59;;;;;;;17.48;9.60;;;;;;;-1.41;66.70;93856.88;2075088;69;20132;-68
2022/01/15 01:25:36;;;;;;;17.38;8.18;;;;;;;-1.42;66.67;93855.34;2075148;69;20144;-68
2022/01/15 01:28:10;;;;;;;17.73;8.85;;;;;;;-1.39;67.67;93854.34;2072098;69;20164;-68
2022/01/15 01:30:56;;;;;;;16.70;8.73;;;;;;;-1.44;68.17;93847.56;2075227;69;20144;-68
2022/01/15 01:36:00;;;;;;;14.68;7.60;;;;;;;-1.43;67.90;93851.84;2071912;69;20160;-70
2022/01/15 01:38:31;;;;;;;10.50;6.40;;;;;;;-1.63;70.75;93841.81;2075200;69;20163;-69
2022/01/15 01:40:59;;;;;;;13.65;6.75;;;;;;;-1.46;69.72;93847.34;2075148;69;20207;-69
2022/01/15 01:43:41;;;;;;;13.60;7.30;;;;;;;-1.65;69.69;93844.34;2075216;69;20178;-69
2022/01/15 01:48:53;;;;;;;14.38;7.63;;;;;;;-1.62;68.35;93835.03;2075150;69;20175;-69
2022/01/15 01:51:34;;;;;;;14.88;8.23;;;;;;;-1.70;67.64;93836.06;2075003;69;20205;-69
2022/01/15 01:54:04;;;;;;;18.50;8.85;;;;;;;-1.80;67.71;93830.03;2075081;69;20159;-69
2022/01/15 01:56:34;;;;;;;21.05;9.90;;;;;;;-1.92;67.58;93834.84;2075155;69;20151;-72
2022/01/15 01:59:01;;;;;;;23.85;10.40;;;;;;;-1.95;67.25;93830.31;2075227;69;20150;-71
2022/01/15 02:01:27;;;;;;;22.70;11.75;;;;;;;-2.01;67.72;93829.56;2075090;69;20636;-68
2022/01/15 02:03:53;;;;;;;22.42;10.23;;;;;;;-1.86;67.57;93821.78;2075122;69;20172;-67
2022/01/15 02:06:19;;;;;;;19.48;9.10;;;;;;;-1.68;67.62;93819.75;2075038;69;20164;-69
2022/01/15 02:08:49;;;;;;;17.25;8.20;;;;;;;-1.70;67.39;93822.25;2075173;69;20580;-68
2022/01/15 02:11:15;;;;;;;19.70;9.77;;;;;;;-1.93;67.94;93816.00;2075080;69;20144;-68
2022/01/15 02:13:44;;;;;;;17.85;9.80;;;;;;;-1.96;67.78;93817.75;2075161;69;20155;-68
2022/01/15 02:16:11;;;;;;;17.55;8.93;;;;;;;-1.92;67.40;93821.03;2075103;69;20160;-67
2022/01/15 02:18:37;;;;;;;22.50;9.63;;;;;;;-1.88;67.83;93823.50;2075071;69;20617;-68
2022/01/15 02:23:41;;;;;;;16.38;8.65;;;;;;;-1.72;68.52;93817.25;2074681;69;20204;-68
2022/01/15 02:26:09;;;;;;;20.10;8.57;;;;;;;-1.82;68.45;93824.28;2071942;69;20224;-69
2022/01/15 02:28:39;;;;;;;17.05;8.07;;;;;;;-1.78;67.98;93826.78;2075176;69;20178;-69
2022/01/15 02:31:10;;;;;;;18.77;8.10;;;;;;;-1.82;69.00;93827.03;2075004;69;20140;-72
2022/01/15 02:33:37;;;;;;;16.38;8.50;;;;;;;-1.70;67.84;93822.25;2075306;69;20144;-70
2022/01/15 02:36:05;;;;;;;16.50;7.63;;;;;;;-1.76;68.31;93818.75;2074874;69;20252;-71
2022/01/15 02:38:31;;;;;;;15.20;7.22;;;;;;;-1.80;69.79;93817.00;2074981;69;20139;-70
2022/01/15 02:40:56;;;;;;;17.27;8.10;;;;;;;-1.86;68.92;93818.25;2074745;69;20158;-73
2022/01/15 02:43:30;;;;;;;17.75;7.05;;;;;;;-1.78;68.20;93815.75;2075097;69;20573;-70
2022/01/15 02:45:57;;;;;;;14.98;7.45;;;;;;;-1.82;67.80;93813.25;2075073;69;20144;-69
2022/01/15 02:48:28;;;;;;;14.02;6.63;;;;;;;-1.85;68.52;93812.22;2071758;69;20610;-69
2022/01/15 02:50:54;;;;;;;16.77;7.47;;;;;;;-2.05;67.79;93807.72;2074918;69;20182;-69
2022/01/15 02:53:20;;;;;;;17.15;7.68;;;;;;;-2.16;68.95;93801.44;2074975;69;20155;-69
2022/01/15 02:55:53;;;;;;;17.95;7.38;;;;;;;-2.11;68.49;93808.97;2075025;69;20515;-68
2022/01/15 02:58:21;;;;;;;15.10;7.15;;;;;;;-2.01;67.91;93801.97;2071671;69;20171;-69
2022/01/15 03:00:47;;;;;;;15.10;7.35;;;;;;;-1.91;67.41;93794.19;2075100;69;20143;-68
2022/01/15 03:03:13;;;;;;;16.50;7.45;;;;;;;-2.14;68.81;93796.94;2074947;69;20182;-70
2022/01/15 03:05:39;;;;;;;17.40;7.68;;;;;;;-2.02;67.55;93788.66;2074651;69;20215;-68
2022/01/15 03:08:05;;;;;;;14.90;7.18;;;;;;;-2.05;67.64;93795.94;2074999;69;20140;-69
2022/01/15 03:10:30;;;;;;;13.48;7.45;;;;;;;-2.41;69.66;93786.66;2074867;69;20144;-69
2022/01/15 03:12:58;;;;;;;15.57;6.97;;;;;;;-2.26;68.43;93783.66;2074828;69;20158;-71
2022/01/15 03:15:24;;;;;;;13.35;6.93;;;;;;;-2.12;67.68;93777.13;2074810;69;20254;-70
2022/01/15 03:17:50;;;;;;;13.52;6.72;;;;;;;-2.18;67.40;93785.41;2075237;69;20136;-70
2022/01/15 03:20:18;;;;;;;14.43;6.30;;;;;;;-2.18;66.82;93779.13;2075127;69;20283;-69
2022/01/15 03:22:45;;;;;;;11.80;5.72;;;;;;;-2.16;67.21;93782.13;2075238;69;20172;-69
2022/01/15 03:25:12;;;;;;;12.98;7.22;;;;;;;-2.25;68.60;93771.34;2075148;69;20235;-70
2022/01/15 03:27:38;;;;;;;15.43;6.30;;;;;;;-2.32;67.89;93775.38;2075172;69;20598;-71
2022/01/15 03:30:06;;;;;;;12.48;5.72;;;;;;;-2.25;67.82;93777.63;2075103;69;20598;-70
2022/01/15 03:32:32;;;;;;;12.82;6.43;;;;;;;-2.16;68.27;93771.09;2075245;69;20166;-69
2022/01/15 03:34:57;;;;;;;12.70;5.90;;;;;;;-2.21;67.75;93772.59;2074954;69;20136;-72
2022/01/15 03:37:23;;;;;;;12.18;6.30;;;;;;;-2.21;67.43;93777.38;2075105;69;20167;-71
2022/01/15 03:39:49;;;;;;;12.73;6.15;;;;;;;-2.23;67.45;93774.38;2075246;69;20146;-71
2022/01/15 03:42:14;;;;;;;10.95;5.70;;;;;;;-2.07;67.55;93768.09;2075140;69;20267;-76
2022/01/15 03:44:45;;;;;;;12.20;5.90;;;;;;;-2.02;67.48;93770.09;2075173;69;20167;-73
2022/01/15 03:47:12;;;;;;;10.02;5.20;;;;;;;-2.10;68.18;93774.63;2075084;69;20230;-68
2022/01/15 03:49:39;;;;;;;10.85;5.43;;;;;;;-2.21;67.87;93777.38;2075166;69;20628;-70
2022/01/15 03:52:06;;;;;;;8.63;4.68;;;;;;;-2.13;67.21;93772.88;2075231;69;20144;-67
2022/01/15 03:54:32;;;;;;;10.38;5.13;;;;;;;-2.13;68.97;93768.09;2075302;69;20148;-67
2022/01/15 03:56:57;;;;;;;10.00;4.68;;;;;;;-2.11;68.60;93773.09;2075042;69;20144;-70
2022/01/15 03:59:23;;;;;;;8.57;4.78;;;;;;;-2.16;67.84;93776.63;2075297;69;20155;-71
2022/01/15 04:01:49;;;;;;;12.57;6.03;;;;;;;-2.22;67.73;93762.09;2075070;69;20163;-69
2022/01/15 04:04:16;;;;;;;10.57;5.22;;;;;;;-2.34;67.64;93775.09;2075015;69;20213;-69
2022/01/15 04:06:42;;;;;;;11.18;5.53;;;;;;;-2.30;67.10;93773.59;2074753;69;20143;-72
2022/01/15 04:09:08;;;;;;;10.65;5.20;;;;;;;-2.41;67.60;93772.88;2074864;69;20159;-71
2022/01/15 04:11:34;;;;;;;11.20;5.70;;;;;;;-2.46;68.10;93776.38;2074893;69;20147;-74
2022/01/15 04:14:01;;;;;;;10.63;5.70;;;;;;;-2.39;67.32;93770.34;2074762;69;20156;-74
2022/01/15 04:16:30;;;;;;;10.02;5.00;;;;;;;-2.40;67.51;93771.59;2071432;69;20143;-73
2022/01/15 04:18:57;;;;;;;9.15;5.13;;;;;;;-2.36;68.07;93772.88;2074808;69;20514;-70
2022/01/15 04:21:23;;;;;;;11.98;5.82;;;;;;;-2.48;68.84;93774.09;2074727;69;20243;-75
2022/01/15 04:23:49;;;;;;;9.88;5.00;;;;;;;-2.31;67.89;93777.63;2074812;69;20139;-70
2022/01/15 04:26:15;;;;;;;9.43;4.65;;;;;;;-2.37;66.87;93771.38;2074905;69;20140;-70
2022/01/15 04:28:41;;;;;;;13.05;6.70;;;;;;;-2.27;67.18;93769.09;2074838;69;20598;-68
2022/01/15 04:31:08;;;;;;;13.70;7.55;;;;;;;-2.32;68.09;93764.34;2074780;69;20140;-70
2022/01/15 04:33:35;;;;;;;11.82;7.18;;;;;;;-2.21;67.80;93755.31;2074757;69;20242;-69
2022/01/15 04:36:03;;;;;;;13.35;6.90;;;;;;;-2.31;66.85;93758.31;2074648;69;20140;-69
2022/01/15 04:38:31;;;;;;;13.23;6.63;;;;;;;-2.39;67.22;93764.84;2074764;69;20148;-69
2022/01/15 04:40:56;;;;;;;13.50;7.15;;;;;;;-2.37;68.21;93759.59;2074807;69;20235;-74
2022/01/15 04:43:22;;;;;;;19.33;10.27;;;;;;;-2.37;67.76;93749.28;2074816;69;20174;-70
2022/01/15 04:45:48;;;;;;;20.13;9.30;;;;;;;-2.43;67.08;93754.06;2071590;69;20147;-71
2022/01/15 04:48:13;;;;;;;34.15;16.17;;;;;;;-2.26;69.22;93750.53;2074788;69;20267;-71
2022/01/15 04:50:39;;;;;;;21.83;12.25;;;;;;;-2.33;68.00;93755.31;2074655;69;20159;-71
2022/01/15 04:53:04;;;;;;;26.48;12.40;;;;;;;-2.27;67.69;93765.59;2074536;69;20148;-71
2022/01/15 04:55:30;;;;;;;38.85;16.85;;;;;;;-2.45;71.29;93761.31;2074728;69;20150;-72
2022/01/15 04:57:56;;;;;;;27.58;14.00;;;;;;;-2.30;68.28;93765.34;2074768;69;20195;-71
2022/01/15 05:00:22;;;;;;;31.63;15.05;;;;;;;-2.46;68.01;93763.34;2074796;69;20209;-71
2022/01/15 05:02:47;;;;;;;36.03;15.82;;;;;;;-2.65;68.69;93765.81;2074807;69;20175;-74
2022/01/15 05:05:13;;;;;;;31.98;14.23;;;;;;;-2.56;68.31;93771.09;2071287;69;20143;-72
2022/01/15 05:07:39;;;;;;;37.47;15.57;;;;;;;-2.69;68.18;93768.06;2074976;69;20143;-71
2022/01/15 05:10:07;;;;;;;35.53;15.18;;;;;;;-2.61;67.74;93771.84;2075090;69;20140;-70
2022/01/15 05:12:40;;;;;;;37.20;15.70;;;;;;;-2.63;67.47;93766.06;2075080;69;20168;-71
2022/01/15 05:15:06;;;;;;;33.35;14.93;;;;;;;-2.65;67.62;93765.81;2075111;69;20140;-71
2022/01/15 05:17:31;;;;;;;31.85;14.82;;;;;;;-2.78;68.15;93759.28;2074963;69;20223;-71
2022/01/15 05:19:57;;;;;;;34.50;16.55;;;;;;;-2.79;68.86;93769.56;2071438;69;20133;-71
2022/01/15 05:22:23;;;;;;;37.33;19.10;;;;;;;-2.79;68.48;93764.06;2075055;69;20171;-72
2022/01/15 05:24:49;;;;;;;52.95;28.58;;;;;;;-2.70;68.36;93766.56;2074953;69;20585;-70
2022/01/15 05:27:15;;;;;;;56.50;30.67;;;;;;;-2.61;68.46;93765.59;2074838;69;20140;-74
2022/01/15 05:29:40;;;;;;;59.90;33.42;;;;;;;-2.59;67.86;93757.56;2075064;69;20156;-69
2022/01/15 05:32:06;;;;;;;65.68;33.45;;;;;;;-2.58;68.38;93765.31;2074897;69;20140;-70
2022/01/15 05:34:32;;;;;;;53.40;28.95;;;;;;;-2.54;68.49;93765.06;2075099;69;20140;-69
2022/01/15 05:36:58;;;;;;;43.88;21.52;;;;;;;-2.51;68.91;93760.59;2074857;69;20232;-69
2022/01/15 05:39:23;;;;;;;49.85;23.83;;;;;;;-2.62;68.19;93764.06;2074922;69;20155;-70
2022/01/15 05:41:49;;;;;;;40.78;21.65;;;;;;;-2.64;68.32;93761.81;2075010;69;20155;-69
2022/01/15 05:44:15;;;;;;;44.97;23.52;;;;;;;-2.74;68.37;93759.81;2074923;69;20150;-70
2022/01/15 05:46:41;;;;;;;43.20;21.55;;;;;;;-2.79;68.90;93764.06;2074873;69;20546;-71
2022/01/15 05:49:06;;;;;;;41.67;19.40;;;;;;;-2.71;68.17;93756.03;2074995;69;20586;-71
2022/01/15 05:51:32;;;;;;;35.80;17.80;;;;;;;-2.72;68.32;93769.06;2074736;69;20499;-71
2022/01/15 05:54:00;;;;;;;34.97;16.77;;;;;;;-2.73;67.76;93767.56;2074860;69;20601;-74
2022/01/15 05:56:26;;;;;;;34.67;16.10;;;;;;;-2.68;68.00;93760.56;2074832;69;20235;-75
2022/01/15 05:58:52;;;;;;;27.58;12.80;;;;;;;-2.54;68.60;93758.81;2074849;69;20167;-73
2022/01/15 06:01:18;;;;;;;26.23;12.07;;;;;;;-2.57;68.55;93763.31;2074799;69;20614;-71
2022/01/15 06:03:44;;;;;;;26.38;11.88;;;;;;;-2.69;69.04;93761.81;2074817;69;20624;-70
2022/01/15 06:06:09;;;;;;;19.27;9.45;;;;;;;-2.62;68.35;93759.28;2075142;69;20172;-70
2022/01/15 06:08:35;;;;;;;22.13;10.55;;;;;;;-2.45;69.01;93764.09;2075344;69;20579;-70
2022/01/15 06:11:00;;;;;;;29.02;13.85;;;;;;;-2.69;69.10;93764.56;2075344;69;20142;-70
2022/01/15 06:13:26;;;;;;;32.55;13.93;;;;;;;-2.73;69.07;93761.31;2075423;69;20140;-70
2022/01/15 06:15:52;;;;;;;26.92;11.82;;;;;;;-2.69;68.79;93759.81;2075408;69;20140;-70
2022/01/15 06:18:17;;;;;;;17.00;8.80;;;;;;;-2.52;69.45;93761.81;2075345;69;20582;-74
2022/01/15 06:20:43;;;;;;;17.30;8.65;;;;;;;-2.48;68.49;93760.31;2075458;69;20168;-74
2022/01/15 06:23:09;;;;;;;24.13;10.13;;;;;;;-2.56;68.75;93756.56;2075346;69;20511;-72
2022/01/15 06:25:34;;;;;;;23.27;11.52;;;;;;;-2.69;69.02;93750.78;2075283;69;20601;-73
2022/01/15 06:28:00;;;;;;;21.65;12.02;;;;;;;-2.63;69.57;93757.06;2075392;69;20231;-70
2022/01/15 06:30:26;;;;;;;25.02;12.50;;;;;;;-2.64;68.61;93752.78;2075299;69;20131;-71
2022/01/15 06:32:51;;;;;;;29.63;14.25;;;;;;;-2.68;69.24;93761.31;2075401;69;20215;-72
2022/01/15 06:35:20;;;;;;;59.40;25.45;;;;;;;-2.67;68.79;93751.78;2071869;69;20613;-71
2022/01/15 06:37:47;;;;;;;40.50;17.48;;;;;;;-2.58;68.70;93754.28;2075304;69;20231;-70
2022/01/15 06:40:14;;;;;;;32.65;14.82;;;;;;;-2.68;69.99;93749.53;2075349;69;20172;-73
2022/01/15 06:42:40;;;;;;;45.83;19.45;;;;;;;-2.64;69.03;93750.78;2075253;69;20148;-72
2022/01/15 06:45:06;;;;;;;83.13;33.42;;;;;;;-2.79;69.63;93753.03;2071854;69;20147;-70
2022/01/15 06:47:32;;;;;;;98.82;39.35;;;;;;;-2.76;70.39;93741.00;2075245;69;20152;-70
2022/01/15 06:49:58;;;;;;;75.70;31.73;;;;;;;-2.68;69.02;93747.53;2075286;69;20177;-76
2022/01/15 06:52:24;;;;;;;97.18;41.92;;;;;;;-2.69;69.68;93745.28;2075339;69;20209;-75
2022/01/15 06:54:50;;;;;;;105.13;45.80;;;;;;;-2.59;69.31;93739.00;2075437;69;20629;-71
2022/01/15 06:57:16;;;;;;;94.10;41.05;;;;;;;-2.48;69.49;93737.50;2075383;69;20151;-76
2022/01/15 06:59:44;;;;;;;176.88;71.30;;;;;;;-2.42;69.56;93746.53;2075383;69;20232;-72
2022/01/15 07:02:11;;;;;;;98.75;42.28;;;;;;;-2.25;70.89;93738.25;2075404;69;20146;-71
2022/01/15 07:04:36;;;;;;;132.48;57.45;;;;;;;-2.40;71.07;93735.75;2075228;69;20151;-74
2022/01/15 07:07:02;;;;;;;132.27;58.03;;;;;;;-2.25;70.77;93739.00;2075159;69;20151;-76
2022/01/15 07:09:28;;;;;;;93.53;42.92;;;;;;;-2.28;70.30;93729.00;2075381;69;20152;-74
2022/01/15 07:11:54;;;;;;;109.80;49.65;;;;;;;-2.25;69.30;93735.50;2075399;69;20168;-74
2022/01/15 07:14:19;;;;;;;110.95;49.70;;;;;;;-2.30;70.82;93734.25;2075374;69;20152;-71
2022/01/15 07:16:45;;;;;;;95.53;45.13;;;;;;;-2.28;70.68;93731.75;2075095;69;20598;-72
2022/01/15 07:19:10;;;;;;;69.97;32.83;;;;;;;-2.25;70.92;93735.50;2075320;69;20167;-69
2022/01/15 07:21:36;;;;;;;65.50;31.23;;;;;;;-2.13;70.08;93739.75;2075131;69;20595;-73
2022/01/15 07:24:02;;;;;;;62.03;27.40;;;;;;;-2.03;69.54;93731.97;2075318;69;20172;-74
2022/01/15 07:26:28;;;;;;;63.38;30.58;;;;;;;-2.00;70.07;93726.19;2075257;69;20143;-73
2022/01/15 07:28:53;;;;;;;45.78;23.75;;;;;;;-1.92;69.67;93726.44;2075176;69;20175;-73
2022/01/15 07:31:19;;;;;;;69.63;31.48;;;;;;;-2.15;70.76;93726.47;2075182;69;20163;-70
2022/01/15 07:33:45;;;;;;;63.60;30.13;;;;;;;-2.18;70.53;93727.47;2075254;69;20152;-69
2022/01/15 07:36:12;;;;;;;58.83;28.88;;;;;;;-2.04;70.20;93731.22;2075171;69;20136;-69
2022/01/15 07:38:37;;;;;;;49.25;23.70;;;;;;;-2.01;70.78;93732.97;2075123;69;20136;-68
2022/01/15 07:41:05;;;;;;;48.03;22.42;;;;;;;-2.04;71.44;93725.69;2075162;69;20171;-70
2022/01/15 07:43:31;;;;;;;46.67;23.45;;;;;;;-2.08;70.60;93727.94;2075267;69;20143;-70
2022/01/15 07:45:57;;;;;;;48.78;23.83;;;;;;;-2.10;70.78;93731.22;2075089;69;20183;-69
2022/01/15 07:48:23;;;;;;;51.83;25.42;;;;;;;-2.08;70.03;93725.94;2075270;69;20614;-69
2022/01/15 07:50:49;;;;;;;44.55;23.38;;;;;;;-2.06;70.50;93728.97;2075037;69;20167;-68
2022/01/15 07:53:14;;;;;;;26.65;14.60;;;;;;;-1.90;70.09;93726.66;2071758;69;20239;-69
2022/01/15 07:55:40;;;;;;;33.85;18.05;;;;;;;-1.89;69.43;93730.94;2075064;69;20142;-70
2022/01/15 07:58:06;;;;;;;36.55;17.92;;;;;;;-1.96;70.14;93720.41;2075093;69;20136;-75
2022/01/15 08:00:32;;;;;;;44.17;21.33;;;;;;;-1.85;69.81;93723.16;2075152;69;20514;-74
2022/01/15 08:02:57;;;;;;;31.52;16.02;;;;;;;-1.66;71.32;93717.81;2075096;69;20148;-75
2022/01/15 08:05:23;;;;;;;28.98;15.30;;;;;;;-1.60;70.38;93716.56;2071582;69;20542;-73
2022/01/15 08:07:48;;;;;;;28.90;15.10;;;;;;;-1.57;69.73;93712.75;2075070;69;20336;-74
2022/01/15 08:10:15;;;;;;;34.20;16.25;;;;;;;-1.61;70.14;93706.00;2075258;69;20270;-71
2022/01/15 08:12:46;;;;;;;34.92;16.90;;;;;;;-1.66;70.55;93707.53;2071775;69;20606;-72
2022/01/15 08:15:13;;;;;;;35.65;17.20;;;;;;;-1.61;70.79;93694.97;2075089;69;20606;-71
2022/01/15 08:17:39;;;;;;;35.38;18.13;;;;;;;-1.53;69.62;93701.47;2075171;69;20179;-71
2022/01/15 08:20:05;;;;;;;32.10;16.48;;;;;;;-1.47;70.26;93701.44;2074953;69;20231;-69
2022/01/15 08:22:30;;;;;;;29.92;15.20;;;;;;;-1.41;69.67;93696.66;2075204;69;20231;-70
2022/01/15 08:24:56;;;;;;;35.92;17.90;;;;;;;-1.44;69.78;93687.38;2075207;69;20166;-71
2022/01/15 08:27:21;;;;;;;33.90;17.85;;;;;;;-1.65;71.32;93694.47;2075308;69;20274;-75
2022/01/15 08:29:48;;;;;;;32.42;16.75;;;;;;;-1.55;70.39;93682.66;2072531;69;20156;-77
2022/01/15 08:32:14;;;;;;;38.60;18.90;;;;;;;-1.61;70.85;93683.91;2075378;69;20143;-73
2022/01/15 08:34:39;;;;;;;39.65;20.45;;;;;;;-1.71;70.17;93690.97;2075186;69;20140;-73
2022/01/15 08:37:05;;;;;;;37.33;18.88;;;;;;;-1.68;71.23;93689.97;2075199;69;20686;-78
2022/01/15 08:39:31;;;;;;;38.20;19.08;;;;;;;-1.63;70.85;93689.94;2075209;69;20143;-75
2022/01/15 08:41:57;;;;;;;37.80;19.10;;;;;;;-1.62;70.65;93690.69;2075103;69;20210;-70
2022/01/15 08:44:25;;;;;;;37.00;19.30;;;;;;;-1.57;70.31;93687.16;2075239;69;20167;-69
2022/01/15 08:46:51;;;;;;;41.90;18.27;;;;;;;-1.41;70.40;93683.59;2075028;69;20151;-69
2022/01/15 08:49:20;;;;;;;31.48;16.40;;;;;;;-0.90;68.06;93677.78;2075282;69;20144;-68
2022/01/15 08:51:46;;;;;;;35.58;18.50;;;;;;;-0.57;69.29;93682.31;2074932;69;20140;-75
2022/01/15 08:54:12;;;;;;;38.15;19.52;;;;;;;-0.20;72.63;93675.47;2075039;69;20230;-71
2022/01/15 08:56:37;;;;;;;41.20;21.73;;;;;;;-0.04;69.86;93669.78;2074906;69;20506;-68
2022/01/15 08:59:03;;;;;;;48.05;25.27;;;;;;;0.24;71.29;93666.72;2074841;69;20175;-73
2022/01/15 09:01:30;;;;;;;65.53;31.73;;;;;;;0.58;70.87;93671.13;2074872;69;20147;-73
2022/01/15 09:03:57;;;;;;;57.85;29.75;;;;;;;0.84;70.72;93667.78;2074900;69;20594;-72
2022/01/15 09:06:23;;;;;;;57.67;30.27;;;;;;;1.21;70.25;93664.97;2074822;69;20230;-71
2022/01/15 09:08:49;;;;;;;55.40;28.42;;;;;;;1.34;68.44;93674.63;2071700;69;20649;-72
2022/01/15 09:11:18;;;;;;;50.55;25.02;;;;;;;1.62;69.93;93669.41;2074927;69;20147;-71
2022/01/15 09:13:44;;;;;;;50.20;26.35;;;;;;;1.71;68.96;93671.03;2074859;69;20152;-70
2022/01/15 09:16:09;;;;;;;70.47;30.45;;;;;;;1.96;69.18;93674.38;2074989;69;20152;-72
2022/01/15 09:18:35;;;;;;;89.25;32.13;;;;;;;2.15;66.81;93669.47;2074980;69;20176;-69
2022/01/15 09:21:02;;;;;;;61.75;23.48;;;;;;;2.10;67.58;93667.56;2071528;69;20144;-71
2022/01/15 09:23:27;;;;;;;64.75;22.48;;;;;;;2.54;66.50;93660.41;2074900;69;20152;-69
2022/01/15 09:25:53;;;;;;;54.92;20.85;;;;;;;2.87;66.62;93652.69;2074871;69;20218;-70
2022/01/15 09:31:03;;;;;;;37.65;16.33;;;;;;;3.61;65.61;93649.00;2075041;69;20167;-69
2022/01/15 09:33:29;;;;;;;27.88;12.85;;;;;;;3.67;64.52;93644.81;2075054;69;20144;-69
2022/01/15 09:35:55;;;;;;;29.85;14.95;;;;;;;3.81;62.97;93637.88;2071372;69;20163;-71
2022/01/15 09:38:21;;;;;;;29.67;15.10;;;;;;;4.15;63.11;93641.84;2074877;69;20627;-72
2022/01/15 09:40:47;;;;;;;26.90;14.45;;;;;;;4.09;61.62;93642.00;2075244;69;20143;-70
2022/01/15 09:43:15;;;;;;;29.20;14.43;;;;;;;4.53;62.06;93633.72;2075395;69;20509;-70
2022/01/15 09:45:41;;;;;;;24.17;12.35;;;;;;;4.69;60.96;93632.53;2075300;69;20148;-69
2022/01/15 09:48:08;;;;;;;21.58;11.60;;;;;;;4.91;60.05;93633.94;2075441;69;20175;-72
2022/01/15 09:50:38;;;;;;;19.60;10.38;;;;;;;5.13;59.91;93629.72;2075293;69;20626;-72
2022/01/15 09:53:04;;;;;;;9.88;6.30;;;;;;;5.13;59.08;93623.38;2075298;69;20176;-72
2022/01/15 09:55:30;;;;;;;14.38;7.47;;;;;;;5.48;58.87;93627.41;2071786;69;20240;-72
2022/01/15 09:57:56;;;;;;;16.02;9.30;;;;;;;5.56;58.27;93630.97;2075472;69;20573;-70
2022/01/15 10:00:24;;;;;;;14.50;8.48;;;;;;;5.74;57.66;93618.69;2075470;69;20179;-68
2022/01/15 10:02:51;;;;;;;10.30;6.55;;;;;;;5.85;56.62;93615.53;2075422;69;20187;-68
2022/01/15 10:05:18;;;;;;;20.52;11.15;;;;;;;6.01;56.10;93615.56;2075097;69;20140;-67
2022/01/15 10:08:16;;;;;;;28.70;16.65;;;;;;;6.47;56.11;93613.47;2075458;69;20186;-70
2022/01/15 10:10:47;;;;;;;28.95;17.63;;;;;;;6.60;55.06;93610.47;2071988;69;20239;-68
2022/01/15 10:13:16;;;;;;;20.60;11.55;;;;;;;6.92;55.15;93600.66;2075333;69;20144;-67
2022/01/15 10:15:44;;;;;;;8.50;5.30;;;;;;;7.25;53.21;93593.03;2075325;69;20150;-67
2022/01/15 10:18:33;;;;;;;11.98;8.02;;;;;;;7.78;53.08;93597.56;2075326;69;20148;-74
2022/01/15 10:21:19;;;;;;;10.00;6.40;;;;;;;8.12;51.96;93593.41;2075247;69;20594;-67
2022/01/15 10:23:53;;;;;;;13.40;7.40;;;;;;;8.07;51.97;93589.50;2075246;69;20602;-68
2022/01/15 10:26:28;;;;;;;6.25;3.55;;;;;;;7.87;50.48;93590.59;2075339;69;20139;-67
2022/01/15 10:28:59;;;;;;;10.23;7.35;;;;;;;7.86;50.11;93600.31;2075240;69;20526;-67
2022/01/15 10:31:51;;;;;;;7.82;5.32;;;;;;;8.36;49.29;93578.63;2075424;69;20152;-68
2022/01/15 10:34:32;;;;;;;10.25;5.78;;;;;;;8.45;47.94;93576.47;2074566;69;20136;-68
2022/01/15 10:37:06;;;;;;;9.98;5.32;;;;;;;8.62;47.63;93576.50;2075156;69;20151;-71
2022/01/15 10:39:31;;;;;;;8.23;5.32;;;;;;;8.89;46.84;93571.69;2071929;69;20231;-69
2022/01/15 10:41:57;;;;;;;6.53;4.72;;;;;;;10.20;47.34;93570.59;2075413;69;20138;-68
2022/01/15 10:44:36;;;;;;;6.00;4.13;;;;;;;11.06;44.20;93569.25;2075557;69;20150;-70
2022/01/15 10:47:06;;;;;;;4.60;2.95;;;;;;;9.73;44.36;93563.47;2075698;69;20144;-70
2022/01/15 10:49:33;;;;;;;7.82;4.88;;;;;;;10.10;43.71;93559.31;2075402;69;20155;-70
2022/01/15 10:52:20;;;;;;;13.32;4.25;;;;;;;11.02;43.13;93560.50;2075180;69;20155;-71
2022/01/15 10:55:04;;;;;;;8.82;4.80;;;;;;;10.30;43.72;93556.59;2075284;69;20147;-69
2022/01/15 10:57:39;;;;;;;9.25;4.30;;;;;;;11.15;44.03;93554.44;2075198;69;20136;-70
2022/01/15 11:00:17;;;;;;;7.60;4.20;;;;;;;11.71;42.21;93545.69;2075369;69;20606;-71
2022/01/15 11:02:46;;;;;;;5.60;3.85;;;;;;;13.29;39.92;93550.59;2075277;69;20160;-72
2022/01/15 11:05:23;;;;;;;5.63;3.58;;;;;;;13.34;38.33;93538.19;2075085;69;20591;-73
2022/01/15 11:07:48;;;;;;;6.68;4.35;;;;;;;14.06;38.15;93532.75;2075205;69;20147;-71
2022/01/15 11:10:14;;;;;;;7.93;5.22;;;;;;;14.72;38.37;93535.34;2075389;69;20151;-71
2022/01/15 11:12:40;;;;;;;8.43;6.32;;;;;;;16.20;35.57;93538.59;2075248;69;20148;-73
2022/01/15 11:15:15;;;;;;;8.77;5.00;;;;;;;17.93;33.34;93532.34;2075370;69;20155;-72
2022/01/15 11:17:41;;;;;;;6.47;5.28;;;;;;;18.43;31.20;93527.47;2075410;69;20140;-70
2022/01/15 11:20:07;;;;;;;6.93;5.63;;;;;;;18.98;30.33;93529.91;2075072;69;20144;-71
2022/01/15 11:22:33;;;;;;;8.02;5.32;;;;;;;18.39;29.05;93525.19;2075343;69;20151;-70
2022/01/15 11:24:59;;;;;;;8.20;5.60;;;;;;;18.21;29.50;93527.94;2071981;69;20140;-71
2022/01/15 11:27:29;;;;;;;5.78;4.28;;;;;;;19.57;28.51;93517.34;2075105;69;20143;-70
2022/01/15 11:29:58;;;;;;;5.82;4.30;;;;;;;21.03;27.80;93522.19;2075213;69;20136;-71
2022/01/15 11:32:26;;;;;;;4.55;3.92;;;;;;;21.99;26.00;93513.88;2075195;69;20160;-71
2022/01/15 11:35:08;;;;;;;3.08;2.78;;;;;;;22.29;25.53;93514.84;2075179;69;20664;-71
2022/01/15 11:37:46;;;;;;;3.05;2.60;;;;;;;20.61;25.33;93515.66;2075177;69;20176;-71
2022/01/15 11:40:39;;;;;;;3.25;2.60;;;;;;;17.74;27.56;93505.13;2075329;69;20650;-72
2022/01/15 11:43:23;;;;;;;2.90;2.60;;;;;;;14.46;31.65;93497.66;2073540;69;20144;-72
2022/01/15 11:45:51;;;;;;;6.15;4.47;;;;;;;14.01;32.83;93496.34;2075116;69;20140;-74
2022/01/15 11:48:28;;;;;;;6.20;4.90;;;;;;;13.65;33.52;93489.91;2075115;69;20139;-71